Time;durP1;ratioP1;P1;durP2;ratioP2;P2;SDS_P1;SDS_P2;PMS_P1;PMS_P2;Temp;Humidity;BMP_temperature;BMP_pressure;BME280_temperature;BME280_humidity;BME280_pressure;Samples;Min_cycle;Max_cycle;Signal;HPM_P1;HPM_P2
2024/02/12 00:00:18;;;;;;;19.00;10.18;;;;;;;11.37;64.78;99637.00;4972368;28;113576;-81
2024/02/12 00:02:47;;;;;;;17.00;9.85;;;;;;;11.30;64.69;99647.19;4967811;28;124706;-80
2024/02/12 00:05:15;;;;;;;19.15;9.65;;;;;;;11.26;64.73;99644.84;4964730;28;123768;-80
2024/02/12 00:07:42;;;;;;;18.25;9.27;;;;;;;11.20;64.74;99650.56;4946439;28;114698;-81
2024/02/12 00:10:13;;;;;;;23.88;10.25;;;;;;;11.15;64.72;99657.97;4960296;28;113453;-81
2024/02/12 00:12:41;;;;;;;17.85;9.70;;;;;;;11.10;64.72;99666.22;4969951;28;125563;-81
2024/02/12 00:15:11;;;;;;;20.25;10.20;;;;;;;11.05;64.85;99658.56;4962719;28;122828;-80
2024/02/12 00:17:40;;;;;;;16.25;9.55;;;;;;;11.01;64.99;99656.25;4964143;28;113908;-80
2024/02/12 00:20:11;;;;;;;20.23;10.13;;;;;;;10.97;65.08;99668.84;4967399;28;114428;-81
2024/02/12 00:22:42;;;;;;;17.80;10.88;;;;;;;10.96;65.19;99680.38;4962256;28;123215;-80
2024/02/12 00:25:13;;;;;;;18.15;10.18;;;;;;;10.94;65.32;99687.56;4962836;28;123881;-81
2024/02/12 00:27:40;;;;;;;19.20;10.07;;;;;;;10.94;65.55;99676.13;4960161;28;115398;-80
2024/02/12 00:30:09;;;;;;;20.48;10.95;;;;;;;10.94;65.57;99687.56;4945785;28;115201;-81
2024/02/12 00:32:36;;;;;;;23.55;10.60;;;;;;;10.94;65.41;99692.88;4968706;28;124361;-81
2024/02/12 00:35:04;;;;;;;25.98;11.38;;;;;;;10.95;65.73;99699.88;4958717;28;123145;-81
2024/02/12 00:37:34;;;;;;;24.83;12.05;;;;;;;10.97;65.79;99695.31;4961376;28;113762;-81
2024/02/12 00:40:09;;;;;;;26.90;11.73;;;;;;;10.97;65.75;99697.97;4968399;28;114266;-81
2024/02/12 00:42:41;;;;;;;27.27;11.35;;;;;;;10.98;65.89;99702.34;4958794;28;123861;-81
2024/02/12 00:45:10;;;;;;;22.73;11.27;;;;;;;10.99;65.75;99706.66;4964378;28;124090;-81
2024/02/12 00:47:39;;;;;;;22.17;12.60;;;;;;;11.00;66.08;99713.69;4956884;28;114201;-81
2024/02/12 00:50:08;;;;;;;26.50;12.10;;;;;;;11.03;65.88;99712.63;4965451;28;113882;-81
2024/02/12 00:52:37;;;;;;;27.88;12.77;;;;;;;11.04;66.09;99720.47;4966273;28;124306;-81
2024/02/12 00:55:06;;;;;;;20.92;11.70;;;;;;;11.07;65.97;99714.97;4953136;28;123964;-81
2024/02/12 00:57:34;;;;;;;24.20;12.50;;;;;;;11.10;66.15;99730.66;4968308;28;113418;-81
2024/02/12 01:00:03;;;;;;;23.27;12.13;;;;;;;11.13;66.16;99728.75;4949279;28;113499;-81
2024/02/12 01:02:31;;;;;;;24.42;12.50;;;;;;;11.15;66.23;99740.13;4963925;28;123893;-81
2024/02/12 01:05:00;;;;;;;26.70;13.10;;;;;;;11.17;66.19;99736.44;4965911;28;123496;-81
2024/02/12 01:07:28;;;;;;;24.90;13.02;;;;;;;11.19;66.15;99744.25;4958340;28;113853;-81
2024/02/12 01:09:55;;;;;;;29.77;13.80;;;;;;;11.22;66.24;99747.56;4966753;28;113221;-81
2024/02/12 01:12:23;;;;;;;23.90;13.32;;;;;;;11.23;66.17;99751.09;4963005;28;124210;-81
2024/02/12 01:14:51;;;;;;;25.10;12.88;;;;;;;11.27;66.15;99752.56;4967553;28;124418;-81
2024/02/12 01:17:18;;;;;;;25.00;12.80;;;;;;;11.29;66.14;99755.97;4947789;28;114350;-80
2024/02/12 01:19:45;;;;;;;27.88;13.68;;;;;;;11.30;66.07;99755.00;4973062;28;114884;-81
2024/02/12 01:22:13;;;;;;;29.67;14.60;;;;;;;11.32;65.95;99761.09;4962895;28;123613;-81
2024/02/12 01:24:40;;;;;;;26.13;13.52;;;;;;;11.34;66.11;99763.59;4965216;28;124092;-81
2024/02/12 01:27:08;;;;;;;30.83;13.88;;;;;;;11.34;66.14;99761.84;4967770;28;113345;-81
2024/02/12 01:29:38;;;;;;;32.65;15.18;;;;;;;11.36;66.19;99767.88;4970485;28;114375;-80
2024/02/12 01:32:07;;;;;;;27.20;14.57;;;;;;;11.37;66.20;99774.03;4961791;28;123738;-81
2024/02/12 01:34:34;;;;;;;27.88;14.63;;;;;;;11.35;66.33;99771.47;4954970;28;122761;-81
2024/02/12 01:37:02;;;;;;;28.73;15.35;;;;;;;11.36;66.04;99778.47;4971337;28;113662;-81
2024/02/12 01:39:29;;;;;;;29.10;14.75;;;;;;;11.36;66.13;99783.78;4970804;28;113867;-81
2024/02/12 01:41:56;;;;;;;32.42;15.50;;;;;;;11.34;66.14;99775.09;4959983;28;123484;-80
2024/02/12 01:44:25;;;;;;;35.22;16.95;;;;;;;11.32;65.95;99777.00;4968257;28;123875;-81
2024/02/12 01:46:55;;;;;;;32.85;17.67;;;;;;;11.29;66.09;99777.19;4966257;28;114055;-80
2024/02/12 01:49:22;;;;;;;30.48;17.05;;;;;;;11.26;66.06;99778.25;4967016;28;116065;-79
2024/02/12 01:51:50;;;;;;;33.85;17.35;;;;;;;11.24;66.07;99779.28;4967892;28;123721;-80
2024/02/12 01:54:19;;;;;;;42.00;18.52;;;;;;;11.20;66.02;99783.06;4962488;28;125237;-80
2024/02/12 01:56:46;;;;;;;33.30;17.75;;;;;;;11.19;65.93;99786.66;4967361;28;113738;-80
2024/02/12 01:59:16;;;;;;;38.45;18.75;;;;;;;11.17;66.13;99789.44;4957579;28;113084;-80
2024/02/12 02:01:47;;;;;;;34.05;18.90;;;;;;;11.15;65.86;99793.13;4966658;28;126078;-80
2024/02/12 02:04:15;;;;;;;43.67;19.10;;;;;;;11.15;66.04;99795.75;4965813;28;123975;-81
2024/02/12 02:06:51;;;;;;;46.63;19.88;;;;;;;11.10;66.03;99794.25;4953795;28;114712;-81
2024/02/12 02:09:18;;;;;;;41.00;20.40;;;;;;;11.10;66.40;99796.91;4954529;28;114283;-81
2024/02/12 02:11:45;;;;;;;44.35;20.55;;;;;;;11.09;65.98;99803.19;4971088;28;123887;-81
2024/02/12 02:14:13;;;;;;;41.03;20.40;;;;;;;11.06;66.01;99798.06;4982950;28;123937;-80
2024/02/12 02:16:41;;;;;;;43.47;21.13;;;;;;;11.03;65.95;99792.94;4951594;28;113470;-82
2024/02/12 02:19:09;;;;;;;42.80;22.33;;;;;;;11.03;65.94;99800.06;4967685;28;114387;-80
2024/02/12 02:21:37;;;;;;;39.20;20.92;;;;;;;11.03;65.90;99803.56;4964766;28;124229;-80
2024/02/12 02:24:04;;;;;;;45.88;22.42;;;;;;;11.03;65.90;99797.41;4965935;28;124221;-80
2024/02/12 02:26:31;;;;;;;40.88;21.17;;;;;;;11.03;66.03;99802.72;4961978;28;114418;-81
2024/02/12 02:29:00;;;;;;;46.55;22.60;;;;;;;11.02;65.78;99801.88;4962493;28;113963;-81
2024/02/12 02:31:27;;;;;;;44.63;21.63;;;;;;;11.02;66.03;99799.22;4964114;28;122986;-81
2024/02/12 02:33:54;;;;;;;42.53;20.33;;;;;;;11.03;65.95;99808.84;4953135;28;122533;-80
2024/02/12 02:36:21;;;;;;;39.30;20.23;;;;;;;11.03;66.01;99814.16;4969006;28;114513;-81
2024/02/12 02:38:49;;;;;;;37.50;18.20;;;;;;;11.01;65.95;99816.03;4961284;28;115052;-81
2024/02/12 02:41:19;;;;;;;36.65;18.15;;;;;;;11.01;65.96;99821.34;4969566;28;125203;-81
2024/02/12 02:43:48;;;;;;;34.45;17.80;;;;;;;10.99;65.70;99817.94;4960645;28;123084;-81
2024/02/12 02:46:29;;;;;;;38.22;17.77;;;;;;;10.96;65.92;99818.13;4948363;28;113609;-81
2024/02/12 02:48:57;;;;;;;36.60;17.60;;;;;;;10.95;65.73;99826.19;4961529;28;115181;-81
2024/02/12 02:51:26;;;;;;;36.97;17.60;;;;;;;10.92;66.08;99824.56;4963499;28;121823;-81
2024/02/12 02:53:57;;;;;;;35.17;17.08;;;;;;;10.92;66.00;99821.91;4960986;28;123926;-80
2024/02/12 02:56:24;;;;;;;38.03;17.88;;;;;;;10.93;65.65;99828.94;4970321;28;115043;-81
2024/02/12 02:58:52;;;;;;;37.30;17.35;;;;;;;10.92;65.77;99837.81;4962187;28;114349;-81
2024/02/12 03:01:19;;;;;;;42.45;18.35;;;;;;;10.91;65.93;99836.13;4969321;28;123496;-81
2024/02/12 03:03:51;;;;;;;38.60;17.13;;;;;;;10.89;65.63;99827.44;4966242;28;123628;-81
2024/02/12 03:06:19;;;;;;;37.10;16.92;;;;;;;10.88;65.77;99833.66;4957016;28;114069;-81
2024/02/12 03:08:49;;;;;;;36.67;17.23;;;;;;;10.87;65.77;99829.34;4964923;28;113672;-81
2024/02/12 03:11:19;;;;;;;37.05;16.77;;;;;;;10.86;65.72;99843.50;4966204;28;123590;-80
2024/02/12 03:13:46;;;;;;;35.60;16.98;;;;;;;10.83;65.56;99833.09;4961244;28;122412;-80
2024/02/12 03:16:14;;;;;;;38.15;16.67;;;;;;;10.81;65.34;99829.69;4947649;28;114993;-80
2024/02/12 03:18:41;;;;;;;37.00;16.50;;;;;;;10.79;65.58;99836.88;4949396;28;112887;-80
2024/02/12 03:21:12;;;;;;;32.78;16.92;;;;;;;10.77;65.38;99844.06;4965267;28;125315;-80
2024/02/12 03:23:40;;;;;;;32.38;15.55;;;;;;;10.70;65.52;99831.22;4963782;28;123590;-80
2024/02/12 03:26:08;;;;;;;31.38;15.85;;;;;;;10.68;65.71;99835.75;4961389;28;114737;-80
2024/02/12 03:28:37;;;;;;;33.67;15.57;;;;;;;10.65;65.41;99841.25;4967353;28;113412;-80
2024/02/12 03:31:04;;;;;;;31.95;16.23;;;;;;;10.63;65.40;99843.13;4967681;28;123248;-80
2024/02/12 03:33:32;;;;;;;33.00;15.65;;;;;;;10.60;65.28;99853.91;4959227;28;122940;-80
2024/02/12 03:36:00;;;;;;;35.90;16.40;;;;;;;10.57;65.03;99859.41;4963477;28;114530;-80
2024/02/12 03:38:27;;;;;;;35.03;16.20;;;;;;;10.51;65.15;99871.22;4966795;28;114217;-80
2024/02/12 03:40:55;;;;;;;35.50;16.80;;;;;;;10.47;65.03;99868.81;4969575;28;123768;-80
2024/02/12 03:43:23;;;;;;;37.45;17.05;;;;;;;10.41;64.95;99870.06;4959250;28;123785;-80
2024/02/12 03:45:52;;;;;;;34.38;16.92;;;;;;;10.37;65.05;99878.28;4967600;28;114551;-80
2024/02/12 04:02:09;;;;;;;39.97;17.52;;;;;;;10.05;65.31;99899.50;4983599;28;123687;-82
2024/02/12 04:04:38;;;;;;;40.53;19.30;;;;;;;10.01;65.13;99909.41;4979673;28;122157;-80
2024/02/12 04:07:06;;;;;;;42.92;18.95;;;;;;;9.98;65.23;99908.75;4976346;28;114045;-81
2024/02/12 04:09:38;;;;;;;41.30;19.13;;;;;;;9.93;65.28;99912.50;4963818;28;112332;-81
2024/02/12 04:12:11;;;;;;;40.13;17.98;;;;;;;9.89;65.38;99905.69;4982575;28;122692;-81
2024/02/12 04:14:40;;;;;;;43.45;19.48;;;;;;;9.88;65.76;99908.41;4979809;28;122197;-81
2024/02/12 04:17:09;;;;;;;48.53;19.85;;;;;;;9.87;65.65;99904.94;4963793;28;113737;-81
2024/02/12 04:19:37;;;;;;;40.20;18.67;;;;;;;9.85;65.58;99901.53;4956715;28;112180;-80
2024/02/12 04:22:09;;;;;;;44.95;19.20;;;;;;;9.84;65.61;99907.75;4971953;28;123681;-81
2024/02/12 04:24:41;;;;;;;43.60;19.58;;;;;;;9.84;65.70;99918.31;4961372;28;123486;-80
2024/02/12 04:27:10;;;;;;;44.72;20.67;;;;;;;9.84;65.70;99913.03;4970367;28;113335;-80
2024/02/12 04:29:39;;;;;;;47.92;19.73;;;;;;;9.84;65.52;99907.75;4965639;28;115362;-81
2024/02/12 04:32:11;;;;;;;53.58;20.95;;;;;;;9.85;65.76;99908.59;4958711;28;123440;-80
2024/02/12 04:34:43;;;;;;;50.15;21.38;;;;;;;9.84;65.75;99907.75;4946708;28;124146;-81
2024/02/12 04:37:11;;;;;;;47.10;20.35;;;;;;;9.84;65.94;99918.31;4961579;28;114966;-81
2024/02/12 04:39:38;;;;;;;49.25;21.23;;;;;;;9.84;65.91;99925.41;4956986;28;114844;-81
2024/02/12 04:42:06;;;;;;;48.53;21.10;;;;;;;9.82;65.78;99922.84;4962093;28;124937;-81
2024/02/12 04:44:33;;;;;;;50.03;20.50;;;;;;;9.81;65.78;99929.06;4960638;28;123580;-81
2024/02/12 04:47:03;;;;;;;43.33;20.85;;;;;;;9.81;66.05;99923.78;4968021;28;114310;-80
2024/02/12 04:49:31;;;;;;;44.33;21.13;;;;;;;9.79;65.84;99925.66;4965068;28;113986;-81
2024/02/12 04:51:59;;;;;;;47.72;21.35;;;;;;;9.78;65.98;99928.41;4964555;28;123545;-81
2024/02/12 04:54:26;;;;;;;48.45;20.63;;;;;;;9.75;65.67;99929.41;4961303;28;123923;-81
2024/02/12 04:56:54;;;;;;;52.33;21.30;;;;;;;9.74;65.63;99933.03;4972561;28;114478;-81
2024/02/12 04:59:22;;;;;;;50.65;22.20;;;;;;;9.72;65.74;99929.63;4952220;28;113478;-81
2024/02/12 05:01:49;;;;;;;49.90;22.15;;;;;;;9.71;65.88;99938.47;4951530;28;123640;-80
2024/02/12 05:04:19;;;;;;;51.05;21.65;;;;;;;9.69;65.81;99945.63;4969972;28;122822;-80
2024/02/12 05:06:47;;;;;;;45.38;20.65;;;;;;;9.69;65.89;99945.63;4969931;28;115193;-81
2024/02/12 05:09:15;;;;;;;51.35;21.40;;;;;;;9.67;65.67;99945.72;4963898;28;113936;-80
2024/02/12 05:11:42;;;;;;;50.08;20.67;;;;;;;9.65;65.87;99941.47;4966310;28;122051;-81
2024/02/12 05:14:09;;;;;;;47.05;21.50;;;;;;;9.64;65.82;99952.97;4965153;28;124280;-80
2024/02/12 05:16:37;;;;;;;46.22;21.35;;;;;;;9.63;66.00;99951.28;4960860;28;114476;-81
2024/02/12 05:24:37;;;;;;;48.55;21.65;;;;;;;9.60;65.96;99962.00;4966185;28;124223;-80
2024/02/12 05:27:04;;;;;;;52.40;22.23;;;;;;;9.61;66.03;99966.38;4966653;28;115166;-80
2024/02/12 05:29:31;;;;;;;52.97;21.88;;;;;;;9.62;66.00;99970.69;4952415;28;115061;-81
2024/02/12 05:31:58;;;;;;;48.10;21.90;;;;;;;9.62;66.30;99965.41;4967289;28;124510;-80
2024/02/12 05:34:26;;;;;;;49.40;22.42;;;;;;;9.62;65.91;99962.78;4961672;28;122486;-81
2024/02/12 05:36:54;;;;;;;48.70;21.73;;;;;;;9.64;66.20;99963.53;4966496;28;114343;-81
2024/02/12 05:39:21;;;;;;;49.55;22.30;;;;;;;9.65;66.38;99970.53;4960927;28;114083;-80
2024/02/12 05:41:49;;;;;;;57.90;22.65;;;;;;;9.67;66.15;99969.50;4970800;28;123641;-81
2024/02/12 05:44:16;;;;;;;62.58;23.58;;;;;;;9.69;66.13;99972.06;4959755;28;124239;-81
2024/02/12 05:46:44;;;;;;;52.55;23.75;;;;;;;9.71;66.19;99970.19;4966147;28;112915;-81
2024/02/12 05:49:15;;;;;;;55.25;23.33;;;;;;;9.75;66.42;99974.38;4961660;28;112998;-80
2024/02/12 05:51:43;;;;;;;51.65;23.02;;;;;;;9.77;66.32;99974.28;4951596;28;123189;-81
2024/02/12 05:54:10;;;;;;;54.53;24.25;;;;;;;9.78;66.08;99971.56;4962975;28;123390;-80
2024/02/12 05:56:39;;;;;;;45.75;22.80;;;;;;;9.79;66.46;99967.97;4968931;28;113286;-81
2024/02/12 05:59:09;;;;;;;55.45;24.27;;;;;;;9.82;66.46;99970.44;4958326;28;113649;-81
2024/02/12 06:01:37;;;;;;;50.70;23.02;;;;;;;9.86;66.51;99985.19;4963243;28;123928;-81
2024/02/12 06:04:05;;;;;;;56.72;23.42;;;;;;;9.87;66.46;99976.34;4967574;28;123896;-81
2024/02/12 06:06:37;;;;;;;52.33;23.90;;;;;;;9.89;66.65;99979.75;4953777;28;114351;-81
2024/02/12 06:09:05;;;;;;;51.25;23.23;;;;;;;9.92;66.51;99984.00;4947247;28;114518;-81
2024/02/12 06:11:32;;;;;;;52.22;24.00;;;;;;;9.94;66.75;99988.28;4967285;28;124528;-80
2024/02/12 06:14:00;;;;;;;53.35;23.50;;;;;;;9.99;66.45;99989.81;4965496;28;124833;-80
2024/02/12 06:16:27;;;;;;;50.85;23.00;;;;;;;10.01;66.54;99993.22;4968615;28;114425;-80
2024/02/12 06:18:56;;;;;;;48.60;23.08;;;;;;;10.02;66.68;99984.34;4945114;28;114093;-80
2024/02/12 06:21:23;;;;;;;43.53;21.80;;;;;;;10.04;66.63;99985.97;4966562;28;124850;-80
2024/02/12 06:23:52;;;;;;;46.20;21.27;;;;;;;10.09;66.63;99991.00;4968533;28;124148;-80
2024/02/12 06:26:19;;;;;;;49.65;21.60;;;;;;;10.11;66.66;99994.41;4975420;28;114052;-80
2024/02/12 06:28:50;;;;;;;44.63;21.50;;;;;;;10.13;66.65;99992.50;4966233;28;112854;-81
2024/02/12 06:31:17;;;;;;;48.20;22.27;;;;;;;10.14;66.53;99999.53;4968574;28;122984;-80
2024/02/12 06:33:45;;;;;;;54.58;22.65;;;;;;;10.15;66.56;100006.50;4961889;28;124062;-80
2024/02/12 06:36:13;;;;;;;41.67;19.92;;;;;;;10.16;66.66;99997.66;4968959;28;114802;-80
2024/02/12 06:38:40;;;;;;;41.78;19.30;;;;;;;10.17;66.58;100004.66;4953135;28;113773;-80
2024/02/12 06:41:08;;;;;;;46.53;21.92;;;;;;;10.18;66.44;100006.34;4960568;28;123781;-80
2024/02/12 06:43:35;;;;;;;49.00;21.63;;;;;;;10.20;66.53;100014.19;4951624;28;123123;-80
2024/02/12 06:46:03;;;;;;;48.47;21.63;;;;;;;10.21;66.77;100013.25;4962140;28;114638;-80
2024/02/12 06:48:30;;;;;;;43.53;21.33;;;;;;;10.23;66.68;100020.19;4958354;28;113751;-80
2024/02/12 06:51:08;;;;;;;46.70;21.20;;;;;;;10.24;66.65;100027.16;4964501;28;124310;-81
2024/02/12 06:53:38;;;;;;;23.17;10.95;;;;;;;10.26;66.59;100030.56;4961998;28;124065;-80
2024/02/12 06:56:07;;;;;;;29.73;10.82;;;;;;;10.27;66.67;100021.69;4960143;28;112770;-80
2024/02/12 06:58:36;;;;;;;24.70;9.82;;;;;;;10.29;66.59;100024.25;4971888;28;113628;-80
2024/02/12 07:01:04;;;;;;;25.70;10.20;;;;;;;10.29;66.35;100025.13;4944805;28;123102;-81
2024/02/12 07:03:32;;;;;;;27.20;10.35;;;;;;;10.31;66.28;100036.50;4969690;28;123823;-80
2024/02/12 07:05:59;;;;;;;23.90;9.70;;;;;;;10.32;66.44;100038.22;4967585;28;114409;-80
2024/02/12 07:08:27;;;;;;;21.55;9.43;;;;;;;10.34;66.62;100043.44;4960419;28;114160;-81
2024/02/12 07:10:54;;;;;;;21.23;8.48;;;;;;;10.36;66.59;100054.78;4978072;28;124010;-81
2024/02/12 07:13:21;;;;;;;23.48;9.18;;;;;;;10.37;66.77;100050.31;4961763;28;123184;-81
2024/02/12 07:15:49;;;;;;;24.00;9.20;;;;;;;10.41;66.35;100059.78;4958357;28;113703;-81
2024/02/12 07:18:16;;;;;;;25.05;9.60;;;;;;;10.43;66.25;100063.22;4962086;28;114600;-81
2024/02/12 07:20:43;;;;;;;18.60;8.90;;;;;;;10.44;66.54;100064.94;4966941;28;123864;-81
2024/02/12 07:23:11;;;;;;;23.90;9.82;;;;;;;10.46;66.17;100068.34;4970365;28;123831;-80
2024/02/12 07:25:38;;;;;;;30.05;11.00;;;;;;;10.48;66.46;100077.03;4949263;28;113191;-80
2024/02/12 07:28:05;;;;;;;28.83;11.45;;;;;;;10.48;66.45;100074.41;4945967;28;113670;-81
2024/02/12 07:30:33;;;;;;;26.45;10.13;;;;;;;10.49;66.23;100078.72;4961673;28;123580;-80
2024/02/12 07:33:02;;;;;;;25.92;10.27;;;;;;;10.50;66.37;100088.41;4964827;28;123752;-80
2024/02/12 07:35:30;;;;;;;22.65;10.07;;;;;;;10.50;66.40;100086.59;4965199;28;114220;-80
2024/02/12 07:37:58;;;;;;;24.45;10.80;;;;;;;10.53;66.43;100085.59;4964850;28;114065;-81
2024/02/12 07:40:26;;;;;;;21.65;9.40;;;;;;;10.54;66.08;100087.28;4966472;28;124036;-81
2024/02/12 07:42:53;;;;;;;22.98;10.35;;;;;;;10.55;66.17;100099.59;4964859;28;124049;-81
2024/02/12 07:45:20;;;;;;;22.15;9.77;;;;;;;10.54;66.26;100100.50;4966324;28;113741;-81
2024/02/12 07:47:48;;;;;;;18.30;8.98;;;;;;;10.56;66.27;100101.28;4965626;28;114240;-80
2024/02/12 07:50:15;;;;;;;20.15;8.90;;;;;;;10.56;66.24;100111.88;4985690;28;124433;-81
2024/02/12 07:52:43;;;;;;;21.48;9.43;;;;;;;10.56;66.29;100111.88;4978614;28;123785;-80
2024/02/12 07:55:14;;;;;;;21.92;8.13;;;;;;;10.57;66.51;100124.19;4976154;28;115631;-80
2024/02/12 07:57:42;;;;;;;20.63;8.77;;;;;;;10.59;66.11;100127.59;4978959;28;114400;-81
2024/02/12 08:00:14;;;;;;;18.52;8.48;;;;;;;10.58;66.41;100125.88;4968517;28;124211;-81
2024/02/12 08:02:43;;;;;;;21.05;8.65;;;;;;;10.60;66.09;100129.28;4968678;28;123146;-81
2024/02/12 08:05:12;;;;;;;15.73;7.88;;;;;;;10.61;66.16;100125.72;4962198;28;113751;-81
2024/02/12 08:07:39;;;;;;;17.50;8.05;;;;;;;10.62;66.13;100132.69;4959798;28;113197;-80
2024/02/12 08:10:24;;;;;;;19.02;7.95;;;;;;;10.64;66.41;100136.13;4969929;28;125039;-81
2024/02/12 08:12:51;;;;;;;15.43;7.78;;;;;;;10.66;66.39;100136.91;4965587;28;124327;-81
2024/02/12 08:15:19;;;;;;;17.20;7.95;;;;;;;10.68;66.27;100137.66;4964004;28;114242;-81
2024/02/12 08:17:46;;;;;;;20.90;8.30;;;;;;;10.71;66.39;100137.47;4960045;28;113585;-80
2024/02/12 08:20:16;;;;;;;19.73;8.77;;;;;;;10.75;66.31;100145.25;4971803;28;124189;-81
2024/02/12 08:22:44;;;;;;;19.98;8.95;;;;;;;10.78;66.28;100147.72;4966949;28;123342;-81
2024/02/12 08:25:11;;;;;;;23.20;8.77;;;;;;;10.79;66.28;100144.13;4963654;28;113240;-81
2024/02/12 08:27:38;;;;;;;19.17;8.85;;;;;;;10.80;66.19;100151.16;4972232;28;113276;-81
2024/02/12 08:30:06;;;;;;;18.70;8.80;;;;;;;10.84;66.22;100155.31;4967533;28;124261;-81
2024/02/12 08:32:34;;;;;;;21.10;9.35;;;;;;;10.85;66.26;100157.00;4965807;28;124008;-82
2024/02/12 08:35:05;;;;;;;24.90;9.55;;;;;;;10.90;66.28;100152.31;4966124;28;113944;-81
2024/02/12 08:37:32;;;;;;;24.15;9.95;;;;;;;10.95;66.32;100165.31;4968291;28;114302;-80
2024/02/12 08:39:59;;;;;;;25.02;9.63;;;;;;;11.00;66.46;100158.81;4985361;28;124999;-81
2024/02/12 08:42:26;;;;;;;24.80;9.93;;;;;;;11.07;66.49;100168.09;4971665;28;123858;-80
2024/02/12 08:44:53;;;;;;;24.95;11.50;;;;;;;11.12;66.59;100173.13;4967094;28;115577;-81
2024/02/12 08:47:23;;;;;;;23.95;10.95;;;;;;;11.17;66.47;100173.72;4953343;28;114430;-80
2024/02/12 08:49:53;;;;;;;30.88;11.68;;;;;;;11.25;66.94;100178.56;4971390;28;123724;-80
2024/02/12 08:52:21;;;;;;;28.00;11.32;;;;;;;11.29;66.39;100180.94;4967486;28;124217;-80
2024/02/12 08:54:48;;;;;;;27.48;11.30;;;;;;;11.34;66.45;100188.66;4981554;28;112360;-80
2024/02/12 08:57:15;;;;;;;30.55;11.02;;;;;;;11.34;66.39;100188.66;4971500;28;113848;-80
2024/02/12 08:59:44;;;;;;;26.83;11.57;;;;;;;11.39;66.37;100196.31;4967961;28;124061;-80
2024/02/12 09:02:11;;;;;;;30.63;11.80;;;;;;;11.38;66.44;100200.78;4974794;28;123693;-80
2024/02/12 09:04:38;;;;;;;31.05;10.73;;;;;;;11.39;66.13;100202.47;4982819;28;113668;-80
2024/02/12 09:07:07;;;;;;;25.73;11.13;;;;;;;11.40;66.15;100209.50;4978761;28;113568;-80
2024/02/12 09:09:34;;;;;;;29.08;11.55;;;;;;;11.41;66.29;100216.47;4979067;28;123553;-80
2024/02/12 09:12:01;;;;;;;27.25;10.85;;;;;;;11.43;66.26;100214.63;4980990;28;124329;-81
2024/02/12 09:14:28;;;;;;;26.50;10.63;;;;;;;11.45;66.29;100218.03;4992925;28;114476;-80
2024/02/12 09:16:56;;;;;;;26.05;10.68;;;;;;;11.47;66.31;100221.44;4983220;28;116005;-80
2024/02/12 09:19:23;;;;;;;24.60;11.05;;;;;;;11.53;66.45;100222.00;4967957;28;122356;-80
2024/02/12 09:21:50;;;;;;;25.83;10.27;;;;;;;11.56;66.32;100230.63;4985470;28;123704;-81
2024/02/12 09:24:18;;;;;;;25.45;9.75;;;;;;;11.61;66.43;100233.03;4963557;28;112886;-80
2024/02/12 09:26:45;;;;;;;28.10;10.45;;;;;;;11.62;66.21;100230.28;4983933;28;113224;-80
2024/02/12 09:29:13;;;;;;;23.33;9.73;;;;;;;11.63;66.38;100241.75;4976532;28;123716;-81
2024/02/12 09:31:40;;;;;;;23.52;9.80;;;;;;;11.67;66.17;100243.28;4957886;28;121838;-81
2024/02/12 09:34:07;;;;;;;23.30;9.50;;;;;;;11.68;66.15;100250.31;4943736;28;114391;-80
2024/02/12 09:37:03;;;;;;;25.40;10.35;;;;;;;11.73;66.26;100256.16;4966201;28;115273;-81
2024/02/12 09:39:29;;;;;;;25.15;10.38;;;;;;;11.77;66.37;100260.38;4958227;28;125114;-80
2024/02/12 09:41:58;;;;;;;26.92;10.23;;;;;;;11.82;66.23;100260.94;4961942;28;98572;-81
2024/02/12 09:44:28;;;;;;;23.75;9.82;;;;;;;11.86;66.11;100270.41;4969123;28;114047;-80
2024/02/12 09:47:06;;;;;;;28.08;10.02;;;;;;;11.90;66.01;100275.56;4966155;28;113001;-80
2024/02/12 09:49:34;;;;;;;25.25;9.63;;;;;;;11.92;66.13;100279.00;4963417;28;123427;-80
2024/02/12 09:52:04;;;;;;;23.02;9.90;;;;;;;11.95;66.12;100284.13;4970512;28;124139;-80
2024/02/12 09:54:31;;;;;;;24.00;9.40;;;;;;;12.00;66.06;100292.66;4969378;28;112285;-80
2024/02/12 09:57:01;;;;;;;21.08;8.93;;;;;;;12.01;66.00;100289.06;4974481;28;114403;-80
2024/02/12 09:59:28;;;;;;;26.13;8.95;;;;;;;12.00;65.98;100295.31;4967914;28;124383;-80
2024/02/12 10:01:56;;;;;;;20.83;8.75;;;;;;;12.01;65.86;100299.66;4977018;28;124011;-80
2024/02/12 10:04:23;;;;;;;18.83;9.30;;;;;;;12.01;65.85;100299.66;4954094;28;113693;-80
2024/02/12 10:06:57;;;;;;;18.20;8.63;;;;;;;12.04;65.70;100304.81;4981309;28;114018;-80
2024/02/12 10:09:24;;;;;;;18.00;8.05;;;;;;;12.08;65.72;100306.31;4980025;28;123441;-81
2024/02/12 10:11:51;;;;;;;18.50;9.02;;;;;;;12.11;65.62;100314.13;4987817;28;123564;-80
2024/02/12 10:14:30;;;;;;;20.33;8.77;;;;;;;12.14;65.77;100316.56;4990156;28;114367;-80
2024/02/12 10:16:57;;;;;;;16.50;7.47;;;;;;;12.18;65.77;100322.56;4962439;28;113529;-80
2024/02/12 10:19:24;;;;;;;16.15;7.38;;;;;;;12.19;65.69;100317.16;4982003;28;125023;-81
2024/02/12 10:21:53;;;;;;;18.48;7.38;;;;;;;12.25;65.70;100319.44;4969287;28;124272;-81
2024/02/12 10:24:21;;;;;;;19.00;8.13;;;;;;;12.33;66.09;100315.47;4967597;28;114228;-81
2024/02/12 10:26:49;;;;;;;19.52;8.23;;;;;;;12.42;65.78;100320.22;4970947;28;113688;-81
2024/02/12 10:29:18;;;;;;;19.02;7.63;;;;;;;12.50;65.73;100328.56;4961356;28;123240;-80
2024/02/12 10:31:46;;;;;;;19.58;7.82;;;;;;;12.58;65.76;100331.63;4957095;28;123858;-80
2024/02/12 10:34:16;;;;;;;19.00;8.88;;;;;;;12.64;65.63;100335.69;4969420;28;113148;-80
2024/02/12 10:36:47;;;;;;;19.73;8.23;;;;;;;12.65;65.45;100335.56;4969298;28;113227;-82
2024/02/12 10:39:18;;;;;;;19.50;8.98;;;;;;;12.66;65.20;100339.97;4976284;28;122424;-81
2024/02/12 10:41:50;;;;;;;17.85;8.20;;;;;;;12.68;65.01;100341.66;4978645;28;123436;-81
2024/02/12 10:44:18;;;;;;;17.75;8.35;;;;;;;12.68;64.96;100341.66;4970568;28;114066;-81
2024/02/12 10:46:49;;;;;;;21.33;8.32;;;;;;;12.69;64.80;100348.69;4969064;28;113881;-81
2024/02/12 10:49:18;;;;;;;20.70;7.88;;;;;;;12.70;65.05;100355.72;4964102;28;123978;-81
2024/02/12 10:51:51;;;;;;;19.45;7.25;;;;;;;12.73;64.89;100360.81;4967430;28;123742;-81
2024/02/12 10:54:19;;;;;;;19.20;7.38;;;;;;;12.71;64.77;100365.38;4963483;28;113862;-81
2024/02/12 10:56:46;;;;;;;16.05;7.28;;;;;;;12.65;64.66;100364.81;4977470;28;115309;-81
2024/02/12 10:59:13;;;;;;;16.75;6.75;;;;;;;12.63;64.53;100371.16;4955962;28;123566;-82
2024/02/12 11:01:43;;;;;;;13.43;6.82;;;;;;;12.58;64.74;100374.13;4954864;28;123365;-81
2024/02/12 11:04:17;;;;;;;12.27;6.22;;;;;;;12.55;64.47;100379.59;4938669;28;112332;-80
2024/02/12 11:06:47;;;;;;;16.27;6.30;;;;;;;12.51;64.43;100372.78;4940932;28;115300;-81
2024/02/12 11:09:14;;;;;;;13.05;5.43;;;;;;;12.48;64.33;100372.94;4953599;28;124152;-81
2024/02/12 11:11:46;;;;;;;13.32;5.20;;;;;;;12.45;64.34;100373.13;4969471;28;123275;-81
2024/02/12 11:14:15;;;;;;;11.73;5.07;;;;;;;12.41;64.60;100376.91;4961242;28;115527;-82
2024/02/12 11:16:42;;;;;;;10.57;4.65;;;;;;;12.39;64.32;100368.19;4967646;28;114753;-82
2024/02/12 11:19:17;;;;;;;10.73;5.05;;;;;;;12.35;64.14;100366.69;4971782;28;123828;-82
2024/02/12 11:21:57;;;;;;;13.32;5.10;;;;;;;12.33;64.15;100365.91;4956295;28;123356;-80
2024/02/12 11:24:35;;;;;;;11.02;5.07;;;;;;;12.32;64.17;100372.16;4972336;28;114481;-82
2024/02/12 11:27:08;;;;;;;15.55;5.70;;;;;;;12.38;64.27;100371.81;4973481;28;113407;-80
2024/02/12 11:29:42;;;;;;;10.73;5.22;;;;;;;12.42;64.24;100368.03;4965660;28;123145;-82
2024/02/12 11:32:18;;;;;;;15.52;6.15;;;;;;;12.48;64.34;100372.09;4968822;28;123149;-82
2024/02/12 11:34:45;;;;;;;;;;;;;;;12.48;64.40;100378.25;4954778;28;113334;-83